sensor_id;sensor_type;location;lat;lon;timestamp;P1;durP1;ratioP1;P2;durP2;ratioP2
29026;SDS011;16120;48.608;9.092;2023-05-07T00:03:00;14.23;;;0.50;;
29026;SDS011;16120;48.608;9.092;2023-05-07T00:06:55;14.23;;;0.60;;
29026;SDS011;16120;48.608;9.092;2023-05-07T00:10:50;14.27;;;0.60;;
29026;SDS011;16120;48.608;9.092;2023-05-07T00:14:47;14.13;;;0.60;;
29026;SDS011;16120;48.608;9.092;2023-05-07T00:18:42;14.17;;;0.60;;
29026;SDS011;16120;48.608;9.092;2023-05-07T00:22:37;14.03;;;0.60;;
29026;SDS011;16120;48.608;9.092;2023-05-07T00:26:32;14.17;;;0.60;;
29026;SDS011;16120;48.608;9.092;2023-05-07T00:30:29;14.00;;;0.60;;
29026;SDS011;16120;48.608;9.092;2023-05-07T00:34:24;14.13;;;0.60;;
29026;SDS011;16120;48.608;9.092;2023-05-07T00:38:19;14.17;;;0.50;;
29026;SDS011;16120;48.608;9.092;2023-05-07T00:42:15;14.17;;;0.60;;
29026;SDS011;16120;48.608;9.092;2023-05-07T00:46:11;14.05;;;0.60;;
29026;SDS011;16120;48.608;9.092;2023-05-07T00:50:08;14.17;;;0.60;;
29026;SDS011;16120;48.608;9.092;2023-05-07T00:54:03;14.13;;;0.60;;
29026;SDS011;16120;48.608;9.092;2023-05-07T00:57:58;14.07;;;0.60;;
29026;SDS011;16120;48.608;9.092;2023-05-07T01:01:55;14.03;;;0.60;;
29026;SDS011;16120;48.608;9.092;2023-05-07T01:05:50;14.07;;;0.60;;
29026;SDS011;16120;48.608;9.092;2023-05-07T01:09:47;14.00;;;0.60;;
29026;SDS011;16120;48.608;9.092;2023-05-07T01:13:43;14.03;;;0.50;;
29026;SDS011;16120;48.608;9.092;2023-05-07T01:17:40;13.97;;;0.60;;
29026;SDS011;16120;48.608;9.092;2023-05-07T01:21:36;13.97;;;0.60;;
29026;SDS011;16120;48.608;9.092;2023-05-07T01:25:33;13.97;;;0.60;;
29026;SDS011;16120;48.608;9.092;2023-05-07T01:29:28;13.87;;;0.60;;
29026;SDS011;16120;48.608;9.092;2023-05-07T01:33:23;13.97;;;0.60;;
29026;SDS011;16120;48.608;9.092;2023-05-07T01:37:19;13.93;;;0.60;;
29026;SDS011;16120;48.608;9.092;2023-05-07T01:41:16;14.00;;;0.57;;
29026;SDS011;16120;48.608;9.092;2023-05-07T01:45:12;13.93;;;0.60;;
29026;SDS011;16120;48.608;9.092;2023-05-07T01:49:07;13.93;;;0.50;;
29026;SDS011;16120;48.608;9.092;2023-05-07T01:53:02;13.77;;;0.60;;
29026;SDS011;16120;48.608;9.092;2023-05-07T01:56:59;13.87;;;0.57;;
29026;SDS011;16120;48.608;9.092;2023-05-07T02:00:54;13.87;;;0.60;;
29026;SDS011;16120;48.608;9.092;2023-05-07T02:04:49;13.77;;;0.60;;
29026;SDS011;16120;48.608;9.092;2023-05-07T02:08:44;13.73;;;0.60;;
29026;SDS011;16120;48.608;9.092;2023-05-07T02:12:41;13.73;;;0.60;;
29026;SDS011;16120;48.608;9.092;2023-05-07T02:16:36;13.77;;;0.60;;
29026;SDS011;16120;48.608;9.092;2023-05-07T02:20:31;13.63;;;0.60;;
29026;SDS011;16120;48.608;9.092;2023-05-07T02:24:26;13.67;;;0.50;;
29026;SDS011;16120;48.608;9.092;2023-05-07T02:28:23;13.68;;;0.60;;
29026;SDS011;16120;48.608;9.092;2023-05-07T02:32:18;13.63;;;0.50;;
29026;SDS011;16120;48.608;9.092;2023-05-07T02:36:13;13.63;;;0.60;;
29026;SDS011;16120;48.608;9.092;2023-05-07T02:40:09;13.57;;;0.60;;
29026;SDS011;16120;48.608;9.092;2023-05-07T02:44:06;13.57;;;0.60;;
29026;SDS011;16120;48.608;9.092;2023-05-07T02:48:01;13.57;;;0.50;;
29026;SDS011;16120;48.608;9.092;2023-05-07T02:51:56;13.53;;;0.60;;
29026;SDS011;16120;48.608;9.092;2023-05-07T02:55:52;13.53;;;0.50;;
29026;SDS011;16120;48.608;9.092;2023-05-07T02:59:48;13.53;;;0.53;;
29026;SDS011;16120;48.608;9.092;2023-05-07T03:03:43;13.53;;;0.60;;
29026;SDS011;16120;48.608;9.092;2023-05-07T03:07:39;13.47;;;0.53;;
29026;SDS011;16120;48.608;9.092;2023-05-07T03:11:34;13.47;;;0.60;;
29026;SDS011;16120;48.608;9.092;2023-05-07T03:15:30;13.33;;;0.50;;
29026;SDS011;16120;48.608;9.092;2023-05-07T03:19:26;13.43;;;0.60;;
29026;SDS011;16120;48.608;9.092;2023-05-07T03:23:21;13.37;;;0.50;;
29026;SDS011;16120;48.608;9.092;2023-05-07T03:27:16;13.43;;;0.50;;
29026;SDS011;16120;48.608;9.092;2023-05-07T03:31:12;13.37;;;0.50;;
29026;SDS011;16120;48.608;9.092;2023-05-07T03:35:08;13.33;;;0.50;;
29026;SDS011;16120;48.608;9.092;2023-05-07T03:39:03;13.30;;;0.60;;
29026;SDS011;16120;48.608;9.092;2023-05-07T03:42:59;13.33;;;0.60;;
29026;SDS011;16120;48.608;9.092;2023-05-07T03:46:55;13.23;;;0.57;;
29026;SDS011;16120;48.608;9.092;2023-05-07T03:50:51;13.27;;;0.60;;
29026;SDS011;16120;48.608;9.092;2023-05-07T03:54:46;13.27;;;0.60;;
29026;SDS011;16120;48.608;9.092;2023-05-07T03:58:41;13.27;;;0.57;;
29026;SDS011;16120;48.608;9.092;2023-05-07T04:02:37;13.27;;;0.50;;
29026;SDS011;16120;48.608;9.092;2023-05-07T04:06:33;13.23;;;0.60;;
29026;SDS011;16120;48.608;9.092;2023-05-07T04:10:29;13.27;;;0.53;;
29026;SDS011;16120;48.608;9.092;2023-05-07T04:14:24;13.23;;;0.60;;
29026;SDS011;16120;48.608;9.092;2023-05-07T04:18:21;13.25;;;0.60;;
29026;SDS011;16120;48.608;9.092;2023-05-07T04:22:16;13.27;;;0.60;;
29026;SDS011;16120;48.608;9.092;2023-05-07T04:26:11;13.27;;;0.60;;
29026;SDS011;16120;48.608;9.092;2023-05-07T04:30:07;13.27;;;0.60;;
29026;SDS011;16120;48.608;9.092;2023-05-07T04:34:03;13.17;;;0.60;;
29026;SDS011;16120;48.608;9.092;2023-05-07T04:37:58;13.27;;;0.60;;
29026;SDS011;16120;48.608;9.092;2023-05-07T04:41:54;13.13;;;0.60;;
29026;SDS011;16120;48.608;9.092;2023-05-07T04:45:49;13.23;;;0.60;;
29026;SDS011;16120;48.608;9.092;2023-05-07T04:49:46;13.23;;;0.60;;
29026;SDS011;16120;48.608;9.092;2023-05-07T04:53:41;13.13;;;0.60;;
29026;SDS011;16120;48.608;9.092;2023-05-07T04:57:36;13.20;;;0.60;;
29026;SDS011;16120;48.608;9.092;2023-05-07T05:01:32;13.33;;;0.70;;
29026;SDS011;16120;48.608;9.092;2023-05-07T05:05:28;13.23;;;0.60;;
29026;SDS011;16120;48.608;9.092;2023-05-07T05:09:23;13.27;;;0.60;;
29026;SDS011;16120;48.608;9.092;2023-05-07T05:13:19;13.23;;;0.60;;
29026;SDS011;16120;48.608;9.092;2023-05-07T05:17:14;13.37;;;0.60;;
29026;SDS011;16120;48.608;9.092;2023-05-07T05:21:10;13.33;;;0.60;;
29026;SDS011;16120;48.608;9.092;2023-05-07T05:25:06;13.37;;;0.60;;
29026;SDS011;16120;48.608;9.092;2023-05-07T05:29:01;13.47;;;0.60;;
29026;SDS011;16120;48.608;9.092;2023-05-07T05:32:56;13.47;;;0.60;;
29026;SDS011;16120;48.608;9.092;2023-05-07T05:36:53;13.37;;;0.60;;
29026;SDS011;16120;48.608;9.092;2023-05-07T05:40:48;13.37;;;0.60;;
29026;SDS011;16120;48.608;9.092;2023-05-07T05:44:43;13.87;;;0.77;;
29026;SDS011;16120;48.608;9.092;2023-05-07T05:48:38;13.97;;;0.70;;
29026;SDS011;16120;48.608;9.092;2023-05-07T05:52:35;13.97;;;0.73;;
29026;SDS011;16120;48.608;9.092;2023-05-07T05:56:30;13.97;;;0.70;;
29026;SDS011;16120;48.608;9.092;2023-05-07T06:00:25;14.13;;;0.70;;
29026;SDS011;16120;48.608;9.092;2023-05-07T06:04:20;14.17;;;0.60;;
29026;SDS011;16120;48.608;9.092;2023-05-07T06:08:17;14.47;;;0.70;;
29026;SDS011;16120;48.608;9.092;2023-05-07T06:12:12;14.57;;;0.70;;
29026;SDS011;16120;48.608;9.092;2023-05-07T06:16:07;14.80;;;0.60;;
29026;SDS011;16120;48.608;9.092;2023-05-07T06:20:03;14.83;;;0.60;;
29026;SDS011;16120;48.608;9.092;2023-05-07T06:23:59;15.20;;;0.70;;
29026;SDS011;16120;48.608;9.092;2023-05-07T06:27:55;15.37;;;0.80;;
29026;SDS011;16120;48.608;9.092;2023-05-07T06:31:50;15.47;;;0.70;;
29026;SDS011;16120;48.608;9.092;2023-05-07T06:35:45;15.30;;;0.60;;
29026;SDS011;16120;48.608;9.092;2023-05-07T06:39:42;15.87;;;0.70;;
29026;SDS011;16120;48.608;9.092;2023-05-07T06:43:37;15.90;;;0.60;;
29026;SDS011;16120;48.608;9.092;2023-05-07T06:47:32;16.17;;;0.70;;
29026;SDS011;16120;48.608;9.092;2023-05-07T06:51:27;16.00;;;0.70;;
29026;SDS011;16120;48.608;9.092;2023-05-07T06:55:24;16.17;;;0.60;;
29026;SDS011;16120;48.608;9.092;2023-05-07T06:59:19;16.47;;;0.70;;
29026;SDS011;16120;48.608;9.092;2023-05-07T07:03:14;16.40;;;0.70;;
29026;SDS011;16120;48.608;9.092;2023-05-07T07:07:09;16.53;;;0.70;;
29026;SDS011;16120;48.608;9.092;2023-05-07T07:11:06;16.90;;;0.80;;
29026;SDS011;16120;48.608;9.092;2023-05-07T07:15:01;16.93;;;0.70;;
29026;SDS011;16120;48.608;9.092;2023-05-07T07:18:56;17.10;;;0.70;;
29026;SDS011;16120;48.608;9.092;2023-05-07T07:22:51;17.20;;;0.80;;
29026;SDS011;16120;48.608;9.092;2023-05-07T07:26:48;17.07;;;0.60;;
29026;SDS011;16120;48.608;9.092;2023-05-07T07:30:43;17.23;;;0.60;;
29026;SDS011;16120;48.608;9.092;2023-05-07T07:34:38;17.60;;;0.60;;
29026;SDS011;16120;48.608;9.092;2023-05-07T07:38:34;17.57;;;0.80;;
29026;SDS011;16120;48.608;9.092;2023-05-07T07:42:30;17.70;;;0.70;;
29026;SDS011;16120;48.608;9.092;2023-05-07T07:46:26;17.93;;;0.70;;
29026;SDS011;16120;48.608;9.092;2023-05-07T07:50:21;17.90;;;0.70;;
29026;SDS011;16120;48.608;9.092;2023-05-07T07:54:16;17.90;;;0.70;;
29026;SDS011;16120;48.608;9.092;2023-05-07T07:58:13;17.97;;;0.70;;
29026;SDS011;16120;48.608;9.092;2023-05-07T08:02:08;18.10;;;0.60;;
29026;SDS011;16120;48.608;9.092;2023-05-07T08:06:03;18.33;;;0.80;;
29026;SDS011;16120;48.608;9.092;2023-05-07T08:09:58;18.23;;;0.70;;
29026;SDS011;16120;48.608;9.092;2023-05-07T08:13:55;18.33;;;0.60;;
29026;SDS011;16120;48.608;9.092;2023-05-07T08:17:50;18.43;;;0.80;;
29026;SDS011;16120;48.608;9.092;2023-05-07T08:21:46;18.57;;;0.80;;
29026;SDS011;16120;48.608;9.092;2023-05-07T08:25:41;18.43;;;0.70;;
29026;SDS011;16120;48.608;9.092;2023-05-07T08:29:37;18.43;;;0.60;;
29026;SDS011;16120;48.608;9.092;2023-05-07T08:33:33;18.67;;;0.70;;
29026;SDS011;16120;48.608;9.092;2023-05-07T08:37:28;18.53;;;0.70;;
29026;SDS011;16120;48.608;9.092;2023-05-07T08:41:23;18.63;;;0.70;;
29026;SDS011;16120;48.608;9.092;2023-05-07T08:45:20;18.70;;;0.70;;
29026;SDS011;16120;48.608;9.092;2023-05-07T08:49:15;19.10;;;0.60;;
29026;SDS011;16120;48.608;9.092;2023-05-07T08:53:10;19.00;;;0.60;;
29026;SDS011;16120;48.608;9.092;2023-05-07T08:57:05;19.20;;;0.60;;
29026;SDS011;16120;48.608;9.092;2023-05-07T09:01:03;19.23;;;0.60;;
29026;SDS011;16120;48.608;9.092;2023-05-07T09:05:00;19.27;;;0.60;;
29026;SDS011;16120;48.608;9.092;2023-05-07T09:08:56;19.27;;;0.60;;
29026;SDS011;16120;48.608;9.092;2023-05-07T09:12:51;19.33;;;0.60;;
29026;SDS011;16120;48.608;9.092;2023-05-07T09:16:47;19.30;;;0.60;;
29026;SDS011;16120;48.608;9.092;2023-05-07T09:20:43;19.43;;;0.60;;
29026;SDS011;16120;48.608;9.092;2023-05-07T09:24:38;19.30;;;0.60;;
29026;SDS011;16120;48.608;9.092;2023-05-07T09:28:33;19.40;;;0.60;;
29026;SDS011;16120;48.608;9.092;2023-05-07T09:32:30;19.53;;;0.60;;
29026;SDS011;16120;48.608;9.092;2023-05-07T09:36:25;19.50;;;0.63;;
29026;SDS011;16120;48.608;9.092;2023-05-07T09:40:22;19.67;;;0.67;;
29026;SDS011;16120;48.608;9.092;2023-05-07T09:44:17;19.80;;;0.70;;
29026;SDS011;16120;48.608;9.092;2023-05-07T09:48:14;19.77;;;0.70;;
29026;SDS011;16120;48.608;9.092;2023-05-07T09:52:11;19.37;;;0.70;;
29026;SDS011;16120;48.608;9.092;2023-05-07T09:56:08;19.20;;;0.70;;
29026;SDS011;16120;48.608;9.092;2023-05-07T10:00:04;19.27;;;0.60;;
29026;SDS011;16120;48.608;9.092;2023-05-07T10:04:01;19.50;;;0.70;;
29026;SDS011;16120;48.608;9.092;2023-05-07T10:07:56;19.57;;;0.60;;
29026;SDS011;16120;48.608;9.092;2023-05-07T10:11:52;19.67;;;0.70;;
29026;SDS011;16120;48.608;9.092;2023-05-07T10:15:48;19.70;;;0.60;;
29026;SDS011;16120;48.608;9.092;2023-05-07T10:19:45;19.90;;;0.70;;
29026;SDS011;16120;48.608;9.092;2023-05-07T10:23:41;19.90;;;0.70;;
29026;SDS011;16120;48.608;9.092;2023-05-07T10:27:39;19.97;;;0.70;;
29026;SDS011;16120;48.608;9.092;2023-05-07T10:31:52;19.87;;;0.60;;
29026;SDS011;16120;48.608;9.092;2023-05-07T10:35:51;20.00;;;0.60;;
29026;SDS011;16120;48.608;9.092;2023-05-07T10:39:50;19.80;;;0.60;;
29026;SDS011;16120;48.608;9.092;2023-05-07T10:43:46;19.50;;;0.60;;
29026;SDS011;16120;48.608;9.092;2023-05-07T11:04:29;24.23;;;0.80;;
29026;SDS011;16120;48.608;9.092;2023-05-07T11:08:25;24.10;;;0.90;;
29026;SDS011;16120;48.608;9.092;2023-05-07T11:16:30;24.10;;;0.80;;
29026;SDS011;16120;48.608;9.092;2023-05-07T11:24:39;24.10;;;0.90;;
29026;SDS011;16120;48.608;9.092;2023-05-07T11:28:36;24.30;;;0.80;;
29026;SDS011;16120;48.608;9.092;2023-05-07T11:32:31;24.20;;;0.60;;
29026;SDS011;16120;48.608;9.092;2023-05-07T11:36:32;24.53;;;0.60;;
29026;SDS011;16120;48.608;9.092;2023-05-07T11:40:30;24.40;;;0.60;;
29026;SDS011;16120;48.608;9.092;2023-05-07T11:44:38;24.50;;;0.60;;
29026;SDS011;16120;48.608;9.092;2023-05-07T11:48:34;24.70;;;0.57;;
29026;SDS011;16120;48.608;9.092;2023-05-07T11:52:29;24.60;;;0.60;;
29026;SDS011;16120;48.608;9.092;2023-05-07T11:56:26;24.70;;;0.60;;
29026;SDS011;16120;48.608;9.092;2023-05-07T12:00:21;24.67;;;0.60;;
29026;SDS011;16120;48.608;9.092;2023-05-07T12:04:19;24.70;;;0.63;;
29026;SDS011;16120;48.608;9.092;2023-05-07T12:08:14;24.40;;;0.50;;
29026;SDS011;16120;48.608;9.092;2023-05-07T12:12:11;24.50;;;0.50;;
29026;SDS011;16120;48.608;9.092;2023-05-07T12:16:06;24.60;;;0.70;;
29026;SDS011;16120;48.608;9.092;2023-05-07T12:20:02;24.50;;;0.50;;
29026;SDS011;16120;48.608;9.092;2023-05-07T12:23:57;24.50;;;0.60;;
29026;SDS011;16120;48.608;9.092;2023-05-07T12:27:54;24.30;;;0.60;;
29026;SDS011;16120;48.608;9.092;2023-05-07T12:31:49;24.10;;;0.60;;
29026;SDS011;16120;48.608;9.092;2023-05-07T12:35:44;23.80;;;0.50;;
29026;SDS011;16120;48.608;9.092;2023-05-07T12:39:43;23.50;;;0.60;;
29026;SDS011;16120;48.608;9.092;2023-05-07T12:43:41;23.20;;;0.60;;
29026;SDS011;16120;48.608;9.092;2023-05-07T12:47:38;23.30;;;0.60;;
29026;SDS011;16120;48.608;9.092;2023-05-07T12:51:34;23.17;;;0.80;;
29026;SDS011;16120;48.608;9.092;2023-05-07T12:55:29;22.80;;;0.60;;
29026;SDS011;16120;48.608;9.092;2023-05-07T12:59:31;22.60;;;0.60;;
29026;SDS011;16120;48.608;9.092;2023-05-07T13:03:27;22.40;;;0.60;;
29026;SDS011;16120;48.608;9.092;2023-05-07T13:07:24;22.30;;;0.60;;
29026;SDS011;16120;48.608;9.092;2023-05-07T13:11:19;22.07;;;0.60;;
29026;SDS011;16120;48.608;9.092;2023-05-07T13:15:16;21.93;;;0.70;;
29026;SDS011;16120;48.608;9.092;2023-05-07T13:19:11;21.90;;;0.60;;
29026;SDS011;16120;48.608;9.092;2023-05-07T13:23:07;21.90;;;0.60;;
29026;SDS011;16120;48.608;9.092;2023-05-07T13:27:02;21.60;;;0.60;;
29026;SDS011;16120;48.608;9.092;2023-05-07T13:30:59;21.73;;;0.70;;
29026;SDS011;16120;48.608;9.092;2023-05-07T13:34:54;21.70;;;0.70;;
29026;SDS011;16120;48.608;9.092;2023-05-07T13:38:49;21.57;;;0.57;;
29026;SDS011;16120;48.608;9.092;2023-05-07T13:42:45;21.60;;;0.70;;
29026;SDS011;16120;48.608;9.092;2023-05-07T13:46:41;21.50;;;0.70;;
29026;SDS011;16120;48.608;9.092;2023-05-07T13:50:36;21.60;;;0.60;;
29026;SDS011;16120;48.608;9.092;2023-05-07T13:54:31;21.50;;;0.60;;
29026;SDS011;16120;48.608;9.092;2023-05-07T13:58:29;21.50;;;0.60;;
29026;SDS011;16120;48.608;9.092;2023-05-07T14:02:26;21.40;;;0.60;;
29026;SDS011;16120;48.608;9.092;2023-05-07T14:06:43;21.30;;;0.60;;
29026;SDS011;16120;48.608;9.092;2023-05-07T14:10:38;21.40;;;0.60;;
29026;SDS011;16120;48.608;9.092;2023-05-07T14:14:34;21.30;;;0.60;;
29026;SDS011;16120;48.608;9.092;2023-05-07T14:18:29;21.07;;;0.60;;
29026;SDS011;16120;48.608;9.092;2023-05-07T14:22:25;21.03;;;0.60;;
29026;SDS011;16120;48.608;9.092;2023-05-07T14:26:20;21.10;;;0.60;;
29026;SDS011;16120;48.608;9.092;2023-05-07T14:30:16;20.57;;;0.60;;
29026;SDS011;16120;48.608;9.092;2023-05-07T14:34:11;20.57;;;0.60;;
29026;SDS011;16120;48.608;9.092;2023-05-07T14:38:08;20.37;;;0.60;;
29026;SDS011;16120;48.608;9.092;2023-05-07T14:42:03;20.33;;;0.60;;
29026;SDS011;16120;48.608;9.092;2023-05-07T14:45:58;20.15;;;0.60;;
29026;SDS011;16120;48.608;9.092;2023-05-07T14:49:53;20.20;;;0.60;;
29026;SDS011;16120;48.608;9.092;2023-05-07T14:53:50;20.20;;;0.60;;
29026;SDS011;16120;48.608;9.092;2023-05-07T14:57:46;20.30;;;0.60;;
29026;SDS011;16120;48.608;9.092;2023-05-07T15:01:41;20.33;;;0.60;;
29026;SDS011;16120;48.608;9.092;2023-05-07T15:05:37;20.37;;;0.60;;
29026;SDS011;16120;48.608;9.092;2023-05-07T15:09:33;20.37;;;0.70;;
29026;SDS011;16120;48.608;9.092;2023-05-07T15:13:28;20.30;;;0.60;;
29026;SDS011;16120;48.608;9.092;2023-05-07T15:17:24;20.20;;;0.70;;
29026;SDS011;16120;48.608;9.092;2023-05-07T15:21:19;20.33;;;0.60;;
29026;SDS011;16120;48.608;9.092;2023-05-07T15:25:16;20.43;;;0.70;;
29026;SDS011;16120;48.608;9.092;2023-05-07T15:29:11;20.50;;;0.60;;
29026;SDS011;16120;48.608;9.092;2023-05-07T15:33:06;20.30;;;0.70;;
29026;SDS011;16120;48.608;9.092;2023-05-07T15:37:01;20.30;;;0.60;;
29026;SDS011;16120;48.608;9.092;2023-05-07T15:40:58;20.40;;;0.60;;
29026;SDS011;16120;48.608;9.092;2023-05-07T15:44:53;20.30;;;0.60;;
29026;SDS011;16120;48.608;9.092;2023-05-07T15:48:48;20.40;;;0.70;;
29026;SDS011;16120;48.608;9.092;2023-05-07T15:52:43;20.47;;;0.60;;
29026;SDS011;16120;48.608;9.092;2023-05-07T15:56:40;20.40;;;0.60;;
29026;SDS011;16120;48.608;9.092;2023-05-07T16:00:35;20.53;;;0.70;;
29026;SDS011;16120;48.608;9.092;2023-05-07T16:04:32;20.50;;;0.60;;
29026;SDS011;16120;48.608;9.092;2023-05-07T16:08:27;20.47;;;0.60;;
29026;SDS011;16120;48.608;9.092;2023-05-07T16:12:24;20.60;;;0.70;;
29026;SDS011;16120;48.608;9.092;2023-05-07T16:16:19;20.47;;;0.60;;
29026;SDS011;16120;48.608;9.092;2023-05-07T16:20:14;20.57;;;0.63;;
29026;SDS011;16120;48.608;9.092;2023-05-07T16:24:09;20.57;;;0.70;;
29026;SDS011;16120;48.608;9.092;2023-05-07T16:28:06;20.63;;;0.60;;
29026;SDS011;16120;48.608;9.092;2023-05-07T16:32:01;20.60;;;0.60;;
29026;SDS011;16120;48.608;9.092;2023-05-07T16:35:56;20.67;;;0.70;;
29026;SDS011;16120;48.608;9.092;2023-05-07T16:39:52;20.60;;;0.60;;
29026;SDS011;16120;48.608;9.092;2023-05-07T16:43:48;20.77;;;0.60;;
29026;SDS011;16120;48.608;9.092;2023-05-07T16:47:43;20.80;;;0.60;;
29026;SDS011;16120;48.608;9.092;2023-05-07T16:51:38;20.70;;;0.60;;
29026;SDS011;16120;48.608;9.092;2023-05-07T16:55:34;20.67;;;0.60;;
29026;SDS011;16120;48.608;9.092;2023-05-07T16:59:31;20.70;;;0.60;;
29026;SDS011;16120;48.608;9.092;2023-05-07T17:03:27;20.77;;;0.60;;
29026;SDS011;16120;48.608;9.092;2023-05-07T17:07:24;20.80;;;0.60;;
29026;SDS011;16120;48.608;9.092;2023-05-07T17:11:19;20.77;;;0.60;;
29026;SDS011;16120;48.608;9.092;2023-05-07T17:15:15;20.87;;;0.70;;
29026;SDS011;16120;48.608;9.092;2023-05-07T17:19:11;20.87;;;0.60;;
29026;SDS011;16120;48.608;9.092;2023-05-07T17:23:06;20.87;;;0.60;;
29026;SDS011;16120;48.608;9.092;2023-05-07T17:27:01;20.93;;;0.60;;
29026;SDS011;16120;48.608;9.092;2023-05-07T17:30:58;20.70;;;0.60;;
29026;SDS011;16120;48.608;9.092;2023-05-07T17:34:53;20.80;;;0.60;;
29026;SDS011;16120;48.608;9.092;2023-05-07T17:38:48;20.90;;;0.60;;
29026;SDS011;16120;48.608;9.092;2023-05-07T17:42:43;20.80;;;0.60;;
29026;SDS011;16120;48.608;9.092;2023-05-07T17:46:40;20.60;;;0.60;;
29026;SDS011;16120;48.608;9.092;2023-05-07T17:50:35;20.60;;;0.60;;
29026;SDS011;16120;48.608;9.092;2023-05-07T17:54:30;20.73;;;0.60;;
29026;SDS011;16120;48.608;9.092;2023-05-07T17:58:25;20.70;;;0.60;;
29026;SDS011;16120;48.608;9.092;2023-05-07T18:02:22;20.77;;;0.60;;
29026;SDS011;16120;48.608;9.092;2023-05-07T18:06:17;20.67;;;0.57;;
29026;SDS011;16120;48.608;9.092;2023-05-07T18:10:12;20.63;;;0.57;;
29026;SDS011;16120;48.608;9.092;2023-05-07T18:14:08;20.67;;;0.60;;
29026;SDS011;16120;48.608;9.092;2023-05-07T18:18:04;20.80;;;0.60;;
29026;SDS011;16120;48.608;9.092;2023-05-07T18:21:59;20.70;;;0.60;;
29026;SDS011;16120;48.608;9.092;2023-05-07T18:25:55;20.73;;;0.60;;
29026;SDS011;16120;48.608;9.092;2023-05-07T18:29:50;20.73;;;0.60;;
29026;SDS011;16120;48.608;9.092;2023-05-07T18:33:46;20.73;;;0.60;;
29026;SDS011;16120;48.608;9.092;2023-05-07T18:37:44;20.70;;;0.60;;
29026;SDS011;16120;48.608;9.092;2023-05-07T18:41:40;20.60;;;0.60;;
29026;SDS011;16120;48.608;9.092;2023-05-07T18:45:35;20.53;;;0.60;;
29026;SDS011;16120;48.608;9.092;2023-05-07T18:49:32;20.50;;;0.60;;
29026;SDS011;16120;48.608;9.092;2023-05-07T18:53:27;20.50;;;0.50;;
29026;SDS011;16120;48.608;9.092;2023-05-07T18:57:22;20.57;;;0.60;;
29026;SDS011;16120;48.608;9.092;2023-05-07T19:01:17;20.50;;;0.60;;
29026;SDS011;16120;48.608;9.092;2023-05-07T19:05:14;20.40;;;0.60;;
29026;SDS011;16120;48.608;9.092;2023-05-07T19:09:09;20.50;;;0.57;;
29026;SDS011;16120;48.608;9.092;2023-05-07T19:13:05;20.00;;;0.60;;
29026;SDS011;16120;48.608;9.092;2023-05-07T19:17:00;20.27;;;0.60;;
29026;SDS011;16120;48.608;9.092;2023-05-07T19:20:56;20.40;;;0.60;;
29026;SDS011;16120;48.608;9.092;2023-05-07T19:24:52;20.30;;;0.60;;
29026;SDS011;16120;48.608;9.092;2023-05-07T19:28:49;20.30;;;0.60;;
29026;SDS011;16120;48.608;9.092;2023-05-07T19:32:45;20.47;;;0.57;;
29026;SDS011;16120;48.608;9.092;2023-05-07T19:36:41;20.50;;;0.60;;
29026;SDS011;16120;48.608;9.092;2023-05-07T19:40:37;20.40;;;0.60;;
29026;SDS011;16120;48.608;9.092;2023-05-07T19:44:32;20.30;;;0.60;;
29026;SDS011;16120;48.608;9.092;2023-05-07T19:48:27;20.40;;;0.60;;
29026;SDS011;16120;48.608;9.092;2023-05-07T19:52:24;20.33;;;0.60;;
29026;SDS011;16120;48.608;9.092;2023-05-07T19:56:19;20.47;;;0.60;;
29026;SDS011;16120;48.608;9.092;2023-05-07T20:00:14;20.57;;;0.60;;
29026;SDS011;16120;48.608;9.092;2023-05-07T20:04:10;20.50;;;0.60;;
29026;SDS011;16120;48.608;9.092;2023-05-07T20:08:06;20.30;;;0.60;;
29026;SDS011;16120;48.608;9.092;2023-05-07T20:12:02;20.50;;;0.60;;
29026;SDS011;16120;48.608;9.092;2023-05-07T20:15:57;20.50;;;0.60;;
29026;SDS011;16120;48.608;9.092;2023-05-07T20:19:53;20.30;;;0.57;;
29026;SDS011;16120;48.608;9.092;2023-05-07T20:23:49;20.50;;;0.60;;
29026;SDS011;16120;48.608;9.092;2023-05-07T20:27:44;20.40;;;0.60;;
29026;SDS011;16120;48.608;9.092;2023-05-07T20:31:40;20.30;;;0.60;;
29026;SDS011;16120;48.608;9.092;2023-05-07T20:35:35;20.00;;;0.60;;
29026;SDS011;16120;48.608;9.092;2023-05-07T20:39:31;20.10;;;0.60;;
29026;SDS011;16120;48.608;9.092;2023-05-07T20:43:27;20.47;;;0.60;;
29026;SDS011;16120;48.608;9.092;2023-05-07T20:47:22;20.20;;;0.60;;
29026;SDS011;16120;48.608;9.092;2023-05-07T20:51:17;20.30;;;0.60;;
29026;SDS011;16120;48.608;9.092;2023-05-07T20:55:14;20.20;;;0.60;;
29026;SDS011;16120;48.608;9.092;2023-05-07T20:59:09;20.00;;;0.60;;
29026;SDS011;16120;48.608;9.092;2023-05-07T21:03:04;20.20;;;0.60;;
29026;SDS011;16120;48.608;9.092;2023-05-07T21:07:00;20.10;;;0.60;;
29026;SDS011;16120;48.608;9.092;2023-05-07T21:10:56;20.00;;;0.60;;
29026;SDS011;16120;48.608;9.092;2023-05-07T21:14:52;20.37;;;0.60;;
29026;SDS011;16120;48.608;9.092;2023-05-07T21:18:47;20.43;;;0.60;;
29026;SDS011;16120;48.608;9.092;2023-05-07T21:22:42;20.20;;;0.60;;
29026;SDS011;16120;48.608;9.092;2023-05-07T21:26:39;20.10;;;0.60;;
29026;SDS011;16120;48.608;9.092;2023-05-07T21:30:34;20.37;;;0.60;;
29026;SDS011;16120;48.608;9.092;2023-05-07T21:34:29;20.33;;;0.60;;
29026;SDS011;16120;48.608;9.092;2023-05-07T21:38:24;20.17;;;0.60;;
29026;SDS011;16120;48.608;9.092;2023-05-07T21:42:21;20.13;;;0.60;;
29026;SDS011;16120;48.608;9.092;2023-05-07T21:46:16;20.30;;;0.60;;
29026;SDS011;16120;48.608;9.092;2023-05-07T21:50:11;20.27;;;0.60;;
29026;SDS011;16120;48.608;9.092;2023-05-07T21:54:07;20.07;;;0.60;;
29026;SDS011;16120;48.608;9.092;2023-05-07T21:58:03;20.00;;;0.60;;
29026;SDS011;16120;48.608;9.092;2023-05-07T22:01:58;19.90;;;0.60;;
29026;SDS011;16120;48.608;9.092;2023-05-07T22:05:54;20.13;;;0.60;;
29026;SDS011;16120;48.608;9.092;2023-05-07T22:09:49;20.00;;;0.60;;
29026;SDS011;16120;48.608;9.092;2023-05-07T22:13:45;20.23;;;0.60;;
29026;SDS011;16120;48.608;9.092;2023-05-07T22:17:41;19.90;;;0.60;;
29026;SDS011;16120;48.608;9.092;2023-05-07T22:21:36;20.10;;;0.60;;
29026;SDS011;16120;48.608;9.092;2023-05-07T22:25:31;20.17;;;0.60;;
29026;SDS011;16120;48.608;9.092;2023-05-07T22:29:28;20.07;;;0.60;;
29026;SDS011;16120;48.608;9.092;2023-05-07T22:33:23;20.10;;;0.60;;
29026;SDS011;16120;48.608;9.092;2023-05-07T22:37:19;20.17;;;0.60;;
29026;SDS011;16120;48.608;9.092;2023-05-07T22:41:14;20.10;;;0.60;;
29026;SDS011;16120;48.608;9.092;2023-05-07T22:45:11;19.80;;;0.60;;
29026;SDS011;16120;48.608;9.092;2023-05-07T22:49:06;20.17;;;0.60;;
29026;SDS011;16120;48.608;9.092;2023-05-07T22:53:01;19.63;;;0.60;;
29026;SDS011;16120;48.608;9.092;2023-05-07T22:56:56;20.20;;;0.60;;
29026;SDS011;16120;48.608;9.092;2023-05-07T23:00:53;20.00;;;0.60;;
29026;SDS011;16120;48.608;9.092;2023-05-07T23:04:48;19.80;;;0.60;;
29026;SDS011;16120;48.608;9.092;2023-05-07T23:08:43;19.97;;;0.60;;
29026;SDS011;16120;48.608;9.092;2023-05-07T23:12:38;20.00;;;0.60;;
29026;SDS011;16120;48.608;9.092;2023-05-07T23:16:35;19.97;;;0.60;;
29026;SDS011;16120;48.608;9.092;2023-05-07T23:20:30;20.07;;;0.60;;
29026;SDS011;16120;48.608;9.092;2023-05-07T23:24:25;19.97;;;0.60;;
29026;SDS011;16120;48.608;9.092;2023-05-07T23:28:21;20.03;;;0.60;;
29026;SDS011;16120;48.608;9.092;2023-05-07T23:32:17;19.95;;;0.60;;
29026;SDS011;16120;48.608;9.092;2023-05-07T23:36:12;20.07;;;0.60;;
29026;SDS011;16120;48.608;9.092;2023-05-07T23:40:08;19.97;;;0.60;;
29026;SDS011;16120;48.608;9.092;2023-05-07T23:44:03;20.00;;;0.60;;